| time (UTC) | temp F | wind direction | speed MPH | gust MPH | rain 1hr in | rain 24hr in | rain mn in | humidity % | barometer mb |
| 20260506192142 | 61 | 285 | 0.0 | 0.0 | 0.00 | 0.21 | 0.21 | 99 | 1005.9 |
| 20260506191640 | 61 | 90 | 0.0 | 2.0 | 0.00 | 0.21 | 0.21 | 99 | 1006.0 |
| 20260506191135 | 61 | 324 | 0.0 | 3.0 | 0.00 | 0.21 | 0.21 | 99 | 1006.0 |
| 20260506190633 | 61 | 206 | 0.0 | 3.0 | 0.00 | 0.21 | 0.21 | 99 | 1006.0 |
| 20260506190130 | 61 | 188 | 0.0 | 0.0 | 0.00 | 0.21 | 0.21 | 99 | 1006.2 |
| 20260506185627 | 61 | 188 | 0.0 | 1.0 | 0.00 | 0.21 | 0.21 | 99 | 1006.3 |
| 20260506185123 | 60 | 174 | 0.0 | 2.0 | 0.00 | 0.21 | 0.21 | 99 | 1006.3 |
| 20260506184620 | 61 | 160 | 0.0 | 1.0 | 0.00 | 0.21 | 0.21 | 99 | 1006.4 |
| 20260506184118 | 60 | 70 | 0.0 | 2.0 | 0.00 | 0.21 | 0.21 | 99 | 1006.5 |
| 20260506183614 | 60 | 187 | 1.0 | 1.0 | 0.02 | 0.21 | 0.21 | 99 | 1006.2 |
| 20260506183110 | 60 | 184 | 2.0 | 2.0 | 0.00 | 0.20 | 0.20 | 99 | 1006.8 |
| 20260506182608 | 60 | 198 | 0.0 | 2.0 | 0.00 | 0.20 | 0.20 | 99 | 1006.5 |
| 20260506182105 | 60 | 15 | 0.0 | 2.0 | 0.00 | 0.20 | 0.20 | 99 | 1006.6 |
| 20260506181603 | 60 | 180 | 0.0 | 0.0 | 0.02 | 0.20 | 0.20 | 99 | 1006.5 |
| 20260506181059 | 61 | 199 | 2.0 | 3.0 | 0.05 | 0.20 | 0.20 | 99 | 1006.6 |
| 20260506180556 | 60 | 90 | 0.0 | 0.0 | 0.02 | 0.20 | 0.20 | 99 | 1006.6 |
| 20260506180053 | 60 | 0 | 0.0 | 0.0 | 0.05 | 0.20 | 0.20 | 99 | 1006.6 |
| 20260506175549 | 60 | 270 | 0.0 | 1.0 | 0.02 | 0.19 | 0.19 | 99 | 1006.9 |
| 20260506175045 | 60 | 78 | 0.0 | 2.0 | 0.02 | 0.19 | 0.19 | 99 | 1007.0 |
| 20260506174544 | 60 | 261 | 0.0 | 0.0 | 0.07 | 0.19 | 0.19 | 99 | 1006.5 |
| 20260506174039 | 60 | 192 | 0.0 | 2.0 | 0.05 | 0.18 | 0.18 | 99 | 1006.8 |
| 20260506173538 | 60 | 262 | 0.0 | 2.0 | 0.00 | 0.18 | 0.18 | 99 | 1006.5 |
| 20260506173034 | 60 | 294 | 0.0 | 2.0 | 0.02 | 0.18 | 0.18 | 99 | 1006.6 |
| 20260506172531 | 61 | 90 | 0.0 | 2.0 | 0.02 | 0.18 | 0.18 | 99 | 1006.5 |
| 20260506172022 | 61 | 270 | 0.0 | 0.0 | 0.02 | 0.17 | 0.17 | 99 | 1006.8 |
| 20260506171520 | 61 | 262 | 0.0 | 0.0 | 0.02 | 0.17 | 0.17 | 99 | 1006.6 |
| 20260506171017 | 60 | 341 | 0.0 | 2.0 | 0.05 | 0.17 | 0.17 | 99 | 1006.9 |
| 20260506170514 | 60 | 331 | 0.0 | 2.0 | 0.02 | 0.17 | 0.17 | 99 | 1007.2 |
| 20260506170011 | 60 | 311 | 2.0 | 2.0 | 0.05 | 0.16 | 0.16 | 99 | 1007.1 |
| 20260506165510 | 60 | 189 | 3.0 | 3.0 | 0.07 | 0.16 | 0.16 | 99 | 1006.9 |
| 20260506165000 | 60 | 276 | 2.0 | 2.0 | 0.05 | 0.15 | 0.15 | 99 | 1006.9 |
| 20260506164457 | 60 | 276 | 1.0 | 1.0 | 0.00 | 0.15 | 0.15 | 99 | 1006.8 |
| 20260506163955 | 60 | 340 | 0.0 | 2.0 | 0.02 | 0.15 | 0.15 | 99 | 1006.9 |
| 20260506163450 | 60 | 35 | 0.0 | 0.0 | 0.02 | 0.15 | 0.15 | 99 | 1006.8 |
| 20260506162944 | 60 | 0 | 0.0 | 2.0 | 0.02 | 0.14 | 0.14 | 99 | 1006.9 |
| 20260506162443 | 60 | 206 | 0.0 | 2.0 | 0.02 | 0.14 | 0.14 | 99 | 1007.2 |
| 20260506161940 | 61 | 174 | 0.0 | 0.0 | 0.05 | 0.14 | 0.14 | 99 | 1007.1 |
| 20260506161438 | 61 | 120 | 0.0 | 0.0 | 0.00 | 0.13 | 0.13 | 99 | 1007.0 |
| 20260506160935 | 61 | 324 | 2.0 | 2.0 | 0.00 | 0.13 | 0.13 | 99 | 1006.9 |
| 20260506160432 | 61 | 74 | 0.0 | 5.0 | 0.00 | 0.13 | 0.13 | 99 | 1006.9 |
| 20260506155929 | 61 | 276 | 0.0 | 2.0 | 0.19 | 0.13 | 0.13 | 99 | 1007.0 |
| 20260506155426 | 61 | 348 | 0.0 | 2.0 | 0.19 | 0.13 | 0.13 | 99 | 1006.8 |
| 20260506153548 | 61 | 132 | 0.0 | 2.0 | 0.09 | 0.10 | 0.10 | 99 | 1007.5 |
| 20260506153046 | 61 | 278 | 0.0 | 1.0 | 0.09 | 0.10 | 0.10 | 99 | 1007.9 |
| 20260506152542 | 61 | 120 | 0.0 | 2.0 | 0.17 | 0.08 | 0.08 | 99 | 1008.0 |
| 20260506152041 | 61 | 120 | 0.0 | 3.0 | 0.17 | 0.08 | 0.08 | 99 | 1008.0 |
| 20260506151538 | 61 | 0 | 0.0 | 0.0 | 0.00 | 0.06 | 0.06 | 99 | 1007.9 |
| 20260506151035 | 62 | 20 | 0.0 | 0.0 | 0.05 | 0.06 | 0.06 | 99 | 1007.8 |
| 20260506150532 | 62 | 348 | 0.0 | 0.0 | 0.05 | 0.06 | 0.06 | 98 | 1007.9 |
| 20260506150029 | 62 | 90 | 0.0 | 0.0 | 0.00 | 0.05 | 0.05 | 98 | 1007.8 |
| 20260506145525 | 62 | 23 | 0.0 | 0.0 | 0.00 | 0.05 | 0.05 | 98 | 1007.7 |
| 20260506145023 | 62 | 99 | 0.0 | 0.0 | 0.00 | 0.05 | 0.05 | 98 | 1007.6 |
| 20260506144519 | 62 | 99 | 0.0 | 0.0 | 0.02 | 0.05 | 0.05 | 97 | 1007.7 |
| 20260506144017 | 62 | 99 | 0.0 | 1.0 | 0.05 | 0.04 | 0.04 | 97 | 1007.7 |
| 20260506143514 | 62 | 97 | 0.0 | 0.0 | 0.05 | 0.04 | 0.04 | 97 | 1007.7 |
| 20260506143013 | 62 | 98 | 0.0 | 0.0 | 0.05 | 0.04 | 0.04 | 97 | 1007.8 |
| 20260506142510 | 62 | 90 | 0.0 | 2.0 | 0.07 | 0.03 | 0.03 | 97 | 1007.9 |
| 20260506142008 | 62 | 157 | 0.0 | 0.0 | 0.07 | 0.03 | 0.03 | 96 | 1008.0 |
| 20260506141506 | 63 | 157 | 0.0 | 0.0 | 0.05 | 0.02 | 0.02 | 96 | 1008.0 |
| 20260506141004 | 62 | 186 | 1.0 | 2.0 | 0.02 | 0.02 | 0.02 | 95 | 1008.1 |
| 20260506140501 | 62 | 90 | 0.0 | 2.0 | 0.00 | 0.01 | 0.01 | 95 | 1007.8 |
| 20260506135957 | 62 | 103 | 0.0 | 0.0 | 0.02 | 0.01 | 0.01 | 95 | 1008.0 |
| 20260506135455 | 63 | 103 | 0.0 | 0.0 | 0.02 | 0.01 | 0.01 | 95 | 1007.9 |
| 20260506134950 | 63 | 103 | 0.0 | 0.0 | 0.00 | 0.01 | 0.01 | 94 | 1007.7 |
| 20260506134447 | 63 | 99 | 0.0 | 0.0 | 0.02 | 0.01 | 0.01 | 93 | 1007.9 |
| 20260506133944 | 63 | 180 | 0.0 | 0.0 | 0.02 | 0.01 | 0.01 | 93 | 1007.8 |
| 20260506133441 | 62 | 173 | 0.0 | 3.0 | 0.00 | 0.00 | 0.00 | 93 | 1007.9 |
| 20260506132937 | 62 | 106 | 0.0 | 0.0 | 0.00 | 0.00 | 0.00 | 94 | 1008.1 |
| 20260506132435 | 63 | 114 | 0.0 | 1.0 | 0.00 | 0.00 | 0.00 | 93 | 1007.9 |
| 20260506131932 | 62 | 188 | 2.0 | 2.0 | 0.00 | 0.00 | 0.00 | 93 | 1008.3 |
| 20260506131428 | 63 | 194 | 0.0 | 2.0 | 0.00 | 0.00 | 0.00 | 93 | 1008.1 |
| 20260506130926 | 63 | 98 | 0.0 | 0.0 | 0.00 | 0.00 | 0.00 | 92 | 1008.0 |
| 20260506130422 | 63 | 164 | 0.0 | 0.0 | 0.02 | 0.00 | 0.00 | 91 | 1008.4 |
| 20260506125920 | 63 | 261 | 0.0 | 2.0 | 0.02 | 0.00 | 0.00 | 90 | 1008.1 |
| 20260506125418 | 64 | 180 | 0.0 | 0.0 | 0.00 | 0.00 | 0.00 | 88 | 1008.2 |
| 20260506124916 | 64 | 90 | 1.0 | 3.0 | 0.00 | 0.00 | 0.00 | 86 | 1008.3 |
| 20260506124413 | 64 | 174 | 3.0 | 3.0 | 0.00 | 0.00 | 0.00 | 85 | 1008.2 |
| 20260506123911 | 64 | 180 | 0.0 | 1.0 | 0.00 | 0.00 | 0.00 | 86 | 1007.9 |
| 20260506123409 | 64 | 126 | 0.0 | 1.0 | 0.00 | 0.00 | 0.00 | 85 | 1008.0 |
| 20260506122906 | 65 | 289 | 0.0 | 2.0 | 0.00 | 0.00 | 0.00 | 84 | 1008.0 |
| 20260506122402 | 65 | 35 | 0.0 | 2.0 | 0.00 | 0.00 | 0.00 | 82 | 1007.9 |
| 20260506121901 | 65 | 32 | 2.0 | 2.0 | 0.00 | 0.00 | 0.00 | 83 | 1007.8 |
| 20260506121357 | 65 | 8 | 0.0 | 1.0 | 0.00 | 0.00 | 0.00 | 84 | 1007.6 |
| 20260506120854 | 65 | 145 | 0.0 | 1.0 | 0.00 | 0.00 | 0.00 | 83 | 1007.7 |
| 20260506120352 | 65 | 111 | 0.0 | 6.0 | 0.00 | 0.00 | 0.00 | 81 | 1007.8 |
| 20260506115849 | 65 | 180 | 0.0 | 3.0 | 0.00 | 0.00 | 0.00 | 82 | 1007.9 |
| 20260506115347 | 64 | 174 | 1.0 | 1.0 | 0.00 | 0.00 | 0.00 | 83 | 1007.9 |
| 20260506114845 | 64 | 15 | 0.0 | 2.0 | 0.00 | 0.00 | 0.00 | 85 | 1007.8 |
| 20260506114342 | 64 | 165 | 0.0 | 0.0 | 0.00 | 0.00 | 0.00 | 85 | 1007.7 |
| 20260506113841 | 65 | 180 | 1.0 | 4.0 | 0.00 | 0.00 | 0.00 | 83 | 1007.5 |
| 20260506113338 | 64 | 40 | 2.0 | 2.0 | 0.00 | 0.00 | 0.00 | 84 | 1007.5 |
| 20260506112835 | 64 | 199 | 3.0 | 4.0 | 0.00 | 0.00 | 0.00 | 84 | 1007.5 |
| 20260506112332 | 63 | 195 | 0.0 | 0.0 | 0.00 | 0.00 | 0.00 | 87 | 1007.7 |
| 20260506111829 | 62 | 28 | 2.0 | 2.0 | 0.00 | 0.00 | 0.00 | 89 | 1007.6 |
| 20260506111328 | 62 | 97 | 0.0 | 2.0 | 0.00 | 0.00 | 0.00 | 88 | 1007.8 |
| 20260506110825 | 62 | 270 | 0.0 | 0.0 | 0.00 | 0.00 | 0.00 | 88 | 1007.7 |
| 20260506110321 | 63 | 143 | 0.0 | 0.0 | 0.00 | 0.00 | 0.00 | 87 | 1007.3 |
| 20260506105819 | 62 | 180 | 0.0 | 2.0 | 0.00 | 0.00 | 0.00 | 87 | 1007.7 |
| 20260506105315 | 62 | 90 | 0.0 | 5.0 | 0.00 | 0.00 | 0.00 | 89 | 1007.3 |
| 20260506104813 | 60 | 199 | 2.0 | 2.0 | 0.00 | 0.00 | 0.00 | 92 | 1007.3 |
| 20260506104310 | 59 | 152 | 3.0 | 3.0 | 0.00 | 0.00 | 0.00 | 94 | 1007.3 |
| 20260506103808 | 59 | 116 | 3.0 | 3.0 | 0.00 | 0.00 | 0.00 | 94 | 1007.2 |
| 20260506103305 | 58 | 195 | 0.0 | 0.0 | 0.00 | 0.00 | 0.00 | 94 | 1007.3 |
| 20260506102802 | 58 | 120 | 0.0 | 0.0 | 0.00 | 0.00 | 0.00 | 94 | 1007.1 |
| 20260506102300 | 57 | 90 | 0.0 | 2.0 | 0.00 | 0.00 | 0.00 | 94 | 1007.1 |
| 20260506101757 | 57 | 90 | 0.0 | 2.0 | 0.00 | 0.00 | 0.00 | 94 | 1007.2 |
| 20260506101253 | 57 | 126 | 0.0 | 2.0 | 0.00 | 0.00 | 0.00 | 94 | 1007.3 |
| 20260506100751 | 57 | 120 | 0.0 | 2.0 | 0.00 | 0.00 | 0.00 | 94 | 1007.1 |
| 20260506100249 | 57 | 106 | 0.0 | 0.0 | 0.00 | 0.00 | 0.00 | 94 | 1007.1 |
| 20260506095748 | 57 | 144 | 0.0 | 2.0 | 0.00 | 0.00 | 0.00 | 94 | 1007.2 |
| 20260506095244 | 57 | 90 | 0.0 | 1.0 | 0.00 | 0.00 | 0.00 | 94 | 1007.3 |
| 20260506094740 | 57 | 140 | 0.0 | 2.0 | 0.00 | 0.00 | 0.00 | 94 | 1007.4 |
| 20260506094239 | 57 | 154 | 0.0 | 0.0 | 0.00 | 0.00 | 0.00 | 94 | 1007.4 |
| 20260506093737 | 57 | 99 | 0.0 | 0.0 | 0.00 | 0.00 | 0.00 | 93 | 1007.3 |
| 20260506093234 | 57 | 75 | 0.0 | 1.0 | 0.00 | 0.00 | 0.00 | 93 | 1007.1 |
| 20260506092732 | 57 | 151 | 0.0 | 2.0 | 0.00 | 0.00 | 0.00 | 93 | 1007.2 |
| 20260506092230 | 57 | 173 | 0.0 | 1.0 | 0.00 | 0.00 | 0.00 | 94 | 1007.0 |
| 20260506091727 | 57 | 180 | 0.0 | 1.0 | 0.00 | 0.00 | 0.00 | 94 | 1007.4 |
| 20260506091224 | 56 | 69 | 0.0 | 0.0 | 0.00 | 0.00 | 0.00 | 94 | 1007.2 |
| 20260506090722 | 56 | 69 | 0.0 | 1.0 | 0.00 | 0.00 | 0.00 | 94 | 1007.3 |
| 20260506090218 | 56 | 125 | 2.0 | 2.0 | 0.00 | 0.00 | 0.00 | 94 | 1007.1 |
| 20260506085715 | 56 | 33 | 0.0 | 2.0 | 0.00 | 0.00 | 0.00 | 94 | 1007.1 |
| 20260506085212 | 56 | 131 | 0.0 | 2.0 | 0.00 | 0.00 | 0.00 | 94 | 1007.1 |
| 20260506084708 | 56 | 99 | 0.0 | 0.0 | 0.00 | 0.00 | 0.00 | 94 | 1007.2 |
| 20260506084204 | 56 | 90 | 0.0 | 1.0 | 0.00 | 0.00 | 0.00 | 94 | 1007.6 |
| 20260506083702 | 56 | 120 | 0.0 | 2.0 | 0.00 | 0.00 | 0.00 | 93 | 1007.4 |
| 20260506083159 | 56 | 131 | 0.0 | 0.0 | 0.00 | 0.00 | 0.00 | 93 | 1007.2 |
| 20260506082657 | 56 | 106 | 0.0 | 2.0 | 0.00 | 0.00 | 0.00 | 94 | 1007.4 |
| 20260506082156 | 56 | 145 | 0.0 | 0.0 | 0.00 | 0.00 | 0.00 | 93 | 1007.6 |
| 20260506081655 | 57 | 145 | 0.0 | 1.0 | 0.00 | 0.00 | 0.00 | 93 | 1007.3 |
| 20260506081152 | 56 | 114 | 0.0 | 2.0 | 0.00 | 0.00 | 0.00 | 93 | 1007.5 |
| 20260506080650 | 57 | 111 | 1.0 | 1.0 | 0.00 | 0.00 | 0.00 | 93 | 1007.3 |
| 20260506080146 | 57 | 114 | 0.0 | 0.0 | 0.00 | 0.00 | 0.00 | 92 | 1007.4 |
| 20260506073130 | 57 | 180 | 0.0 | 1.0 | 0.00 | 0.00 | 0.00 | 93 | 1007.6 |
| 20260506072627 | 57 | 114 | 0.0 | 1.0 | 0.00 | 0.00 | 0.00 | 92 | 1007.7 |
| 20260506072125 | 57 | 99 | 0.0 | 0.0 | 0.00 | 0.00 | 0.00 | 91 | 1007.6 |
| 20260506071622 | 57 | 66 | 0.0 | 2.0 | 0.00 | 0.00 | 0.00 | 90 | 1007.6 |
| 20260506071120 | 58 | 114 | 0.0 | 1.0 | 0.00 | 0.00 | 0.00 | 90 | 1007.7 |
| 20260506070617 | 58 | 198 | 0.0 | 2.0 | 0.00 | 0.00 | 0.00 | 90 | 1007.5 |
| 20260506070114 | 58 | 106 | 0.0 | 1.0 | 0.00 | 0.00 | 0.00 | 91 | 1007.7 |
| 20260506062051 | 58 | 195 | 0.0 | 2.0 | 0.00 | 0.00 | 0.00 | 88 | 1007.8 |
| 20260506061547 | 58 | 187 | 0.0 | 0.0 | 0.00 | 0.00 | 0.00 | 88 | 1007.9 |
| 20260506061045 | 58 | 173 | 1.0 | 1.0 | 0.00 | 0.00 | 0.00 | 89 | 1008.2 |
| 20260506060543 | 58 | 165 | 0.0 | 1.0 | 0.00 | 0.00 | 0.00 | 88 | 1008.2 |
| 20260506051012 | 59 | 162 | 0.0 | 2.0 | 0.00 | 0.00 | 0.00 | 84 | 1008.7 |
| 20260506050509 | 59 | 180 | 0.0 | 2.0 | 0.00 | 0.00 | 0.00 | 84 | 1008.4 |
| 20260506045000 | 58 | 180 | 0.0 | 2.0 | 0.00 | 0.00 | 0.00 | 85 | 1008.4 |
| 20260506044458 | 58 | 185 | 0.0 | 2.0 | 0.00 | 0.00 | 0.00 | 85 | 1008.8 |
| 20260506043954 | 58 | 195 | 1.0 | 1.0 | 0.00 | 0.00 | 0.00 | 85 | 1008.7 |
| 20260506043451 | 58 | 180 | 2.0 | 2.0 | 0.00 | 0.00 | 0.00 | 85 | 1008.6 |
| 20260506042949 | 58 | 199 | 2.0 | 2.0 | 0.00 | 0.00 | 0.00 | 85 | 1008.6 |
| 20260506042449 | 58 | 180 | 0.0 | 0.0 | 0.00 | 0.00 | 0.00 | 85 | 1008.5 |
| 20260506041946 | 58 | 200 | 0.0 | 2.0 | 0.00 | 0.00 | 0.00 | 84 | 1008.6 |
| 20260506041444 | 58 | 188 | 0.0 | 0.0 | 0.00 | 0.00 | 0.00 | 84 | 1008.5 |
| 20260506040941 | 58 | 203 | 1.0 | 1.0 | 0.00 | 0.00 | 0.00 | 84 | 1008.6 |
| 20260506040438 | 58 | 195 | 0.0 | 1.0 | 0.00 | 0.00 | 0.00 | 84 | 1008.6 |
| 20260506035934 | 59 | 180 | 0.0 | 2.0 | 0.00 | 0.02 | 0.02 | 85 | 1008.5 |
| 20260506035432 | 58 | 180 | 1.0 | 1.0 | 0.00 | 0.02 | 0.02 | 84 | 1008.4 |
| 20260506034928 | 59 | 191 | 1.0 | 2.0 | 0.00 | 0.02 | 0.02 | 84 | 1008.5 |
| 20260506034426 | 59 | 180 | 1.0 | 1.0 | 0.00 | 0.02 | 0.02 | 83 | 1008.6 |
| 20260506033923 | 59 | 180 | 0.0 | 1.0 | 0.00 | 0.02 | 0.02 | 83 | 1008.5 |
| 20260506033420 | 59 | 180 | 0.0 | 2.0 | 0.00 | 0.02 | 0.02 | 83 | 1008.8 |
| 20260506032917 | 59 | 195 | 0.0 | 1.0 | 0.00 | 0.02 | 0.02 | 83 | 1008.6 |
| 20260506032414 | 60 | 173 | 0.0 | 1.0 | 0.00 | 0.02 | 0.02 | 82 | 1008.4 |
| 20260506031910 | 60 | 157 | 0.0 | 0.0 | 0.00 | 0.02 | 0.02 | 82 | 1008.6 |
| 20260506031408 | 59 | 206 | 0.0 | 2.0 | 0.00 | 0.02 | 0.02 | 82 | 1008.5 |
| 20260506030905 | 60 | 187 | 0.0 | 1.0 | 0.00 | 0.02 | 0.02 | 82 | 1008.3 |
| 20260506030403 | 60 | 203 | 0.0 | 1.0 | 0.00 | 0.02 | 0.02 | 81 | 1008.2 |
| 20260506025900 | 60 | 180 | 1.0 | 1.0 | 0.00 | 0.02 | 0.02 | 81 | 1008.4 |
| 20260506025356 | 60 | 172 | 0.0 | 0.0 | 0.00 | 0.02 | 0.02 | 81 | 1008.3 |
| 20260506024854 | 60 | 151 | 1.0 | 2.0 | 0.00 | 0.02 | 0.02 | 80 | 1008.5 |
| 20260506024351 | 61 | 180 | 0.0 | 1.0 | 0.00 | 0.02 | 0.02 | 80 | 1008.5 |
| 20260506023846 | 61 | 166 | 0.0 | 0.0 | 0.00 | 0.02 | 0.02 | 80 | 1008.5 |
| 20260506023343 | 61 | 173 | 0.0 | 1.0 | 0.00 | 0.02 | 0.02 | 79 | 1008.4 |
| 20260506022840 | 62 | 188 | 0.0 | 0.0 | 0.00 | 0.02 | 0.02 | 79 | 1008.4 |
| 20260506022338 | 62 | 180 | 0.0 | 1.0 | 0.00 | 0.02 | 0.02 | 79 | 1008.2 |
| 20260506021836 | 62 | 180 | 0.0 | 0.0 | 0.00 | 0.02 | 0.02 | 79 | 1008.7 |
| 20260506021332 | 62 | 187 | 0.0 | 1.0 | 0.00 | 0.02 | 0.02 | 79 | 1008.4 |
| 20260506020829 | 62 | 180 | 0.0 | 0.0 | 0.00 | 0.02 | 0.02 | 78 | 1008.6 |
| 20260506020327 | 62 | 203 | 0.0 | 0.0 | 0.00 | 0.02 | 0.02 | 78 | 1008.3 |
| 20260506015824 | 62 | 99 | 0.0 | 2.0 | 0.00 | 0.02 | 0.02 | 76 | 1008.2 |
| 20260506015322 | 63 | 180 | 0.0 | 0.0 | 0.00 | 0.02 | 0.02 | 75 | 1008.2 |
| 20260506014818 | 64 | 215 | 0.0 | 1.0 | 0.00 | 0.02 | 0.02 | 75 | 1008.2 |
| 20260506014315 | 63 | 106 | 0.0 | 2.0 | 0.00 | 0.02 | 0.02 | 75 | 1008.1 |
| 20260506013812 | 64 | 117 | 0.0 | 0.0 | 0.00 | 0.02 | 0.02 | 75 | 1008.3 |
| 20260506013309 | 64 | 185 | 1.0 | 1.0 | 0.00 | 0.02 | 0.02 | 75 | 1008.4 |
| 20260506012806 | 64 | 180 | 1.0 | 2.0 | 0.00 | 0.02 | 0.02 | 75 | 1008.1 |
| 20260506012307 | 64 | 165 | 0.0 | 0.0 | 0.00 | 0.02 | 0.02 | 73 | 1007.9 |
| 20260506011800 | 65 | 180 | 0.0 | 0.0 | 0.00 | 0.02 | 0.02 | 73 | 1008.0 |
| 20260506011256 | 64 | 173 | 0.0 | 0.0 | 0.00 | 0.02 | 0.02 | 73 | 1007.8 |
| 20260506010754 | 65 | 160 | 0.0 | 0.0 | 0.00 | 0.02 | 0.02 | 72 | 1007.9 |
| 20260506010252 | 65 | 160 | 0.0 | 2.0 | 0.00 | 0.02 | 0.02 | 72 | 1007.7 |
| 20260506005749 | 65 | 180 | 0.0 | 0.0 | 0.00 | 0.02 | 0.02 | 72 | 1007.4 |
| 20260506005245 | 66 | 172 | 0.0 | 1.0 | 0.00 | 0.02 | 0.02 | 70 | 1007.6 |
| 20260506004741 | 66 | 188 | 0.0 | 2.0 | 0.00 | 0.02 | 0.02 | 70 | 1007.3 |
| 20260506004239 | 66 | 140 | 2.0 | 2.0 | 0.00 | 0.02 | 0.02 | 69 | 1007.6 |
| 20260506003735 | 66 | 95 | 0.0 | 2.0 | 0.00 | 0.02 | 0.02 | 67 | 1007.5 |
| 20260506003231 | 67 | 113 | 2.0 | 2.0 | 0.00 | 0.02 | 0.02 | 67 | 1007.5 |
| 20260506002727 | 67 | 251 | 0.0 | 2.0 | 0.00 | 0.02 | 0.02 | 65 | 1007.5 |
| 20260506002224 | 68 | 180 | 0.0 | 1.0 | 0.00 | 0.02 | 0.02 | 65 | 1007.2 |
| 20260506001720 | 68 | 352 | 0.0 | 1.0 | 0.00 | 0.02 | 0.02 | 64 | 1007.2 |
| 20260506001217 | 69 | 106 | 0.0 | 0.0 | 0.00 | 0.02 | 0.02 | 59 | 1007.1 |
| 20260506000714 | 70 | 188 | 0.0 | 0.0 | 0.00 | 0.02 | 0.02 | 59 | 1007.0 |
| 20260506000212 | 71 | 0 | 0.0 | 0.0 | 0.00 | 0.02 | 0.02 | 58 | 1006.9 |
| 20260505235709 | 72 | 103 | 0.0 | 1.0 | 0.00 | 0.02 | 0.02 | 54 | 1007.0 |
| 20260505235207 | 72 | 180 | 0.0 | 0.0 | 0.00 | 0.02 | 0.02 | 52 | 1007.0 |
| 20260505234703 | 73 | 194 | 0.0 | 0.0 | 0.00 | 0.02 | 0.02 | 50 | 1007.1 |
| 20260505234200 | 74 | 66 | 0.0 | 3.0 | 0.00 | 0.02 | 0.02 | 48 | 1007.0 |
| 20260505233657 | 74 | 25 | 3.0 | 4.0 | 0.00 | 0.02 | 0.02 | 48 | 1006.8 |
| 20260505233155 | 74 | 150 | 0.0 | 2.0 | 0.00 | 0.02 | 0.02 | 50 | 1006.8 |
| 20260505232652 | 75 | 165 | 0.0 | 3.0 | 0.00 | 0.02 | 0.02 | 48 | 1006.6 |
| 20260505232150 | 75 | 215 | 0.0 | 2.0 | 0.00 | 0.02 | 0.02 | 48 | 1007.0 |
| 20260505231646 | 75 | 0 | 0.0 | 3.0 | 0.00 | 0.02 | 0.02 | 49 | 1006.8 |
| 20260505231145 | 76 | 212 | 2.0 | 2.0 | 0.00 | 0.02 | 0.02 | 44 | 1006.8 |
| 20260505230643 | 77 | 340 | 3.0 | 5.0 | 0.00 | 0.02 | 0.02 | 43 | 1006.6 |
| 20260505230139 | 76 | 270 | 0.0 | 3.0 | 0.00 | 0.02 | 0.02 | 45 | 1006.8 |
| 20260505225635 | 77 | 216 | 0.0 | 3.0 | 0.00 | 0.02 | 0.02 | 45 | 1006.5 |
| 20260505225132 | 78 | 288 | 5.0 | 9.0 | 0.00 | 0.02 | 0.02 | 42 | 1006.5 |
| 20260505224628 | 78 | 132 | 2.0 | 2.0 | 0.00 | 0.02 | 0.02 | 44 | 1006.3 |
| 20260505224126 | 78 | 180 | 3.0 | 8.0 | 0.00 | 0.02 | 0.02 | 41 | 1006.1 |
| 20260505223623 | 78 | 281 | 0.0 | 3.0 | 0.00 | 0.02 | 0.02 | 42 | 1006.3 |
| 20260505223119 | 79 | 192 | 0.0 | 4.0 | 0.00 | 0.02 | 0.02 | 41 | 1006.2 |
| 20260505222615 | 79 | 222 | 3.0 | 3.0 | 0.00 | 0.02 | 0.02 | 41 | 1006.4 |
| 20260505222112 | 79 | 151 | 0.0 | 3.0 | 0.00 | 0.02 | 0.02 | 46 | 1006.4 |
| 20260505221609 | 79 | 5 | 2.0 | 3.0 | 0.00 | 0.02 | 0.02 | 41 | 1006.3 |
| 20260505221105 | 79 | 171 | 0.0 | 2.0 | 0.00 | 0.02 | 0.02 | 45 | 1006.2 |
| 20260505220603 | 79 | 99 | 0.0 | 3.0 | 0.00 | 0.02 | 0.02 | 44 | 1006.2 |
| 20260505220100 | 80 | 102 | 0.0 | 6.0 | 0.00 | 0.02 | 0.02 | 39 | 1006.3 |
| 20260505215558 | 80 | 105 | 0.0 | 9.0 | 0.00 | 0.02 | 0.02 | 40 | 1006.0 |
| 20260505215055 | 80 | 270 | 2.0 | 9.0 | 0.00 | 0.02 | 0.02 | 42 | 1006.0 |
| 20260505214554 | 79 | 183 | 0.0 | 5.0 | 0.00 | 0.02 | 0.02 | 41 | 1006.0 |
| 20260505214050 | 80 | 188 | 0.0 | 0.0 | 0.00 | 0.02 | 0.02 | 44 | 1006.2 |
| 20260505213548 | 80 | 194 | 0.0 | 4.0 | 0.00 | 0.02 | 0.02 | 41 | 1006.2 |
| 20260505213044 | 82 | 270 | 0.0 | 3.0 | 0.00 | 0.02 | 0.02 | 40 | 1006.2 |
| 20260505212540 | 82 | 318 | 3.0 | 6.0 | 0.00 | 0.02 | 0.02 | 38 | 1006.0 |
| 20260505212038 | 82 | 346 | 0.0 | 7.0 | 0.00 | 0.02 | 0.02 | 38 | 1006.2 |
| 20260505211535 | 83 | 284 | 3.0 | 6.0 | 0.00 | 0.02 | 0.02 | 37 | 1006.0 |
| 20260505211031 | 82 | 194 | 3.0 | 4.0 | 0.00 | 0.02 | 0.02 | 40 | 1006.1 |
| 20260505210528 | 82 | 129 | 0.0 | 5.0 | 0.00 | 0.02 | 0.02 | 38 | 1006.2 |
| 20260505210026 | 83 | 283 | 0.0 | 3.0 | 0.00 | 0.02 | 0.02 | 41 | 1006.1 |
| 20260505205523 | 83 | 345 | 0.0 | 10.0 | 0.00 | 0.02 | 0.02 | 38 | 1006.1 |
| 20260505205021 | 84 | 180 | 1.0 | 7.0 | 0.00 | 0.02 | 0.02 | 37 | 1006.2 |
| 20260505204518 | 83 | 332 | 2.0 | 5.0 | 0.00 | 0.02 | 0.02 | 38 | 1006.0 |
| 20260505204015 | 83 | 21 | 0.0 | 7.0 | 0.00 | 0.02 | 0.02 | 39 | 1006.2 |
| 20260505203512 | 83 | 178 | 0.0 | 6.0 | 0.00 | 0.02 | 0.02 | 39 | 1006.1 |
| 20260505203009 | 84 | 307 | 3.0 | 6.0 | 0.00 | 0.02 | 0.02 | 39 | 1006.1 |
| 20260505202505 | 84 | 232 | 2.0 | 3.0 | 0.00 | 0.02 | 0.02 | 43 | 1005.9 |
| 20260505202001 | 84 | 10 | 2.0 | 3.0 | 0.00 | 0.02 | 0.02 | 38 | 1005.9 |
| 20260505201458 | 84 | 277 | 0.0 | 6.0 | 0.00 | 0.02 | 0.02 | 39 | 1006.1 |
| 20260505200955 | 84 | 212 | 3.0 | 12.0 | 0.00 | 0.02 | 0.02 | 39 | 1006.0 |
| 20260505200453 | 84 | 139 | 6.0 | 12.0 | 0.00 | 0.02 | 0.02 | 38 | 1006.1 |
| 20260505195949 | 84 | 23 | 0.0 | 6.0 | 0.00 | 0.02 | 0.02 | 41 | 1006.4 |
| 20260505195446 | 82 | 254 | 0.0 | 2.0 | 0.00 | 0.02 | 0.02 | 44 | 1006.3 |
| 20260505194943 | 82 | 307 | 2.0 | 4.0 | 0.00 | 0.02 | 0.02 | 43 | 1006.3 |
| 20260505194441 | 83 | 229 | 0.0 | 11.0 | 0.00 | 0.02 | 0.02 | 41 | 1006.4 |
| 20260505193941 | 85 | 337 | 3.0 | 6.0 | 0.00 | 0.02 | 0.02 | 39 | 1006.4 |
| 20260505193438 | 84 | 243 | 1.0 | 9.0 | 0.00 | 0.02 | 0.02 | 35 | 1006.3 |
| 20260505192936 | 84 | 339 | 2.0 | 10.0 | 0.00 | 0.02 | 0.02 | 34 | 1006.4 |